sensor_id;sensor_type;location;lat;lon;timestamp;temperature;humidity
22706;DHT22;11520;51.198;4.468;2022-11-20T00:01:13;5.10;99.90
22706;DHT22;11520;51.198;4.468;2022-11-20T00:03:39;5.30;99.90
22706;DHT22;11520;51.198;4.468;2022-11-20T00:06:10;5.40;99.90
22706;DHT22;11520;51.198;4.468;2022-11-20T00:08:38;5.50;99.90
22706;DHT22;11520;51.198;4.468;2022-11-20T00:11:11;5.60;99.90
22706;DHT22;11520;51.198;4.468;2022-11-20T00:13:37;5.60;99.90
22706;DHT22;11520;51.198;4.468;2022-11-20T00:16:05;5.60;99.90
22706;DHT22;11520;51.198;4.468;2022-11-20T00:18:33;5.70;99.90
22706;DHT22;11520;51.198;4.468;2022-11-20T00:21:09;5.80;99.90
22706;DHT22;11520;51.198;4.468;2022-11-20T00:23:36;5.90;99.90
22706;DHT22;11520;51.198;4.468;2022-11-20T00:26:07;5.90;99.90
22706;DHT22;11520;51.198;4.468;2022-11-20T00:28:33;6.00;99.90
22706;DHT22;11520;51.198;4.468;2022-11-20T00:31:13;6.00;99.90
22706;DHT22;11520;51.198;4.468;2022-11-20T00:33:41;6.10;99.90
22706;DHT22;11520;51.198;4.468;2022-11-20T00:36:13;6.10;99.90
22706;DHT22;11520;51.198;4.468;2022-11-20T00:38:42;6.10;99.90
22706;DHT22;11520;51.198;4.468;2022-11-20T00:41:13;6.10;99.90
22706;DHT22;11520;51.198;4.468;2022-11-20T00:43:39;6.20;99.90
22706;DHT22;11520;51.198;4.468;2022-11-20T00:46:19;6.20;99.90
22706;DHT22;11520;51.198;4.468;2022-11-20T00:48:46;6.20;99.90
22706;DHT22;11520;51.198;4.468;2022-11-20T00:51:14;6.00;99.90
22706;DHT22;11520;51.198;4.468;2022-11-20T00:53:41;6.10;99.90
22706;DHT22;11520;51.198;4.468;2022-11-20T00:56:10;6.10;99.90
22706;DHT22;11520;51.198;4.468;2022-11-20T00:58:39;5.90;99.90
22706;DHT22;11520;51.198;4.468;2022-11-20T01:01:29;5.80;99.90
22706;DHT22;11520;51.198;4.468;2022-11-20T01:03:56;5.60;99.90
22706;DHT22;11520;51.198;4.468;2022-11-20T01:06:28;5.70;99.90
22706;DHT22;11520;51.198;4.468;2022-11-20T01:08:57;5.60;99.90
22706;DHT22;11520;51.198;4.468;2022-11-20T01:11:28;5.30;99.90
22706;DHT22;11520;51.198;4.468;2022-11-20T01:13:56;5.40;99.90
22706;DHT22;11520;51.198;4.468;2022-11-20T01:16:25;5.70;99.90
22706;DHT22;11520;51.198;4.468;2022-11-20T01:18:53;5.80;99.90
22706;DHT22;11520;51.198;4.468;2022-11-20T01:21:25;5.80;99.90
22706;DHT22;11520;51.198;4.468;2022-11-20T01:23:52;5.90;99.90
22706;DHT22;11520;51.198;4.468;2022-11-20T01:26:24;5.90;99.90
22706;DHT22;11520;51.198;4.468;2022-11-20T01:28:52;5.90;99.90
22706;DHT22;11520;51.198;4.468;2022-11-20T01:31:22;5.90;99.90
22706;DHT22;11520;51.198;4.468;2022-11-20T01:33:52;5.90;99.90
22706;DHT22;11520;51.198;4.468;2022-11-20T01:38:53;5.50;99.90
22706;DHT22;11520;51.198;4.468;2022-11-20T01:41:20;5.50;99.90
22706;DHT22;11520;51.198;4.468;2022-11-20T01:45:00;5.60;99.90
22706;DHT22;11520;51.198;4.468;2022-11-20T01:47:36;5.60;99.90
22706;DHT22;11520;51.198;4.468;2022-11-20T01:50:21;5.80;99.90
22706;DHT22;11520;51.198;4.468;2022-11-20T01:53:02;5.70;99.90
22706;DHT22;11520;51.198;4.468;2022-11-20T01:55:33;5.80;99.90
22706;DHT22;11520;51.198;4.468;2022-11-20T01:58:00;5.70;99.90
22706;DHT22;11520;51.198;4.468;2022-11-20T02:00:27;5.70;99.90
22706;DHT22;11520;51.198;4.468;2022-11-20T02:03:05;5.60;99.90
22706;DHT22;11520;51.198;4.468;2022-11-20T02:05:58;5.60;99.90
22706;DHT22;11520;51.198;4.468;2022-11-20T02:08:32;5.60;99.90
22706;DHT22;11520;51.198;4.468;2022-11-20T02:10:59;5.60;99.90
22706;DHT22;11520;51.198;4.468;2022-11-20T02:13:26;5.60;99.90
22706;DHT22;11520;51.198;4.468;2022-11-20T02:16:24;5.60;99.90
22706;DHT22;11520;51.198;4.468;2022-11-20T02:18:52;5.60;99.90
22706;DHT22;11520;51.198;4.468;2022-11-20T02:21:28;5.70;99.90
22706;DHT22;11520;51.198;4.468;2022-11-20T02:26:26;5.80;99.90
22706;DHT22;11520;51.198;4.468;2022-11-20T02:28:54;5.80;99.90
22706;DHT22;11520;51.198;4.468;2022-11-20T02:31:23;5.70;99.90
22706;DHT22;11520;51.198;4.468;2022-11-20T02:33:59;5.80;99.90
22706;DHT22;11520;51.198;4.468;2022-11-20T02:36:27;5.90;99.90
22706;DHT22;11520;51.198;4.468;2022-11-20T02:38:53;5.90;99.90
22706;DHT22;11520;51.198;4.468;2022-11-20T02:41:19;5.90;99.90
22706;DHT22;11520;51.198;4.468;2022-11-20T02:43:45;5.90;99.90
22706;DHT22;11520;51.198;4.468;2022-11-20T02:46:12;6.00;99.90
22706;DHT22;11520;51.198;4.468;2022-11-20T02:48:37;5.90;99.90
22706;DHT22;11520;51.198;4.468;2022-11-20T02:51:05;5.90;99.90
22706;DHT22;11520;51.198;4.468;2022-11-20T02:53:31;5.90;99.90
22706;DHT22;11520;51.198;4.468;2022-11-20T02:55:59;5.80;99.90
22706;DHT22;11520;51.198;4.468;2022-11-20T02:58:25;5.80;99.90
22706;DHT22;11520;51.198;4.468;2022-11-20T03:00:52;5.80;99.90
22706;DHT22;11520;51.198;4.468;2022-11-20T03:03:18;5.70;99.90
22706;DHT22;11520;51.198;4.468;2022-11-20T03:05:45;5.80;99.90
22706;DHT22;11520;51.198;4.468;2022-11-20T03:08:12;5.70;99.90
22706;DHT22;11520;51.198;4.468;2022-11-20T03:10:41;5.80;99.90
22706;DHT22;11520;51.198;4.468;2022-11-20T03:13:07;5.80;99.90
22706;DHT22;11520;51.198;4.468;2022-11-20T03:15:32;5.90;99.90
22706;DHT22;11520;51.198;4.468;2022-11-20T03:17:58;5.90;99.90
22706;DHT22;11520;51.198;4.468;2022-11-20T03:20:24;6.00;99.90
22706;DHT22;11520;51.198;4.468;2022-11-20T03:22:50;6.00;99.90
22706;DHT22;11520;51.198;4.468;2022-11-20T03:25:16;5.90;99.90
22706;DHT22;11520;51.198;4.468;2022-11-20T03:27:41;5.80;99.90
22706;DHT22;11520;51.198;4.468;2022-11-20T03:30:07;5.90;99.90
22706;DHT22;11520;51.198;4.468;2022-11-20T03:32:33;5.90;99.90
22706;DHT22;11520;51.198;4.468;2022-11-20T03:35:00;5.90;99.90
22706;DHT22;11520;51.198;4.468;2022-11-20T03:37:25;5.90;99.90
22706;DHT22;11520;51.198;4.468;2022-11-20T03:39:51;5.90;99.90
22706;DHT22;11520;51.198;4.468;2022-11-20T03:42:16;6.00;99.90
22706;DHT22;11520;51.198;4.468;2022-11-20T03:45:01;6.00;99.90
22706;DHT22;11520;51.198;4.468;2022-11-20T03:47:26;6.00;99.90
22706;DHT22;11520;51.198;4.468;2022-11-20T03:49:52;6.00;99.90
22706;DHT22;11520;51.198;4.468;2022-11-20T03:52:18;6.10;99.90
22706;DHT22;11520;51.198;4.468;2022-11-20T03:54:44;6.00;99.90
22706;DHT22;11520;51.198;4.468;2022-11-20T03:57:10;6.10;99.90
22706;DHT22;11520;51.198;4.468;2022-11-20T03:59:36;6.10;99.90
22706;DHT22;11520;51.198;4.468;2022-11-20T04:02:03;6.10;99.90
22706;DHT22;11520;51.198;4.468;2022-11-20T04:04:28;6.10;99.90
22706;DHT22;11520;51.198;4.468;2022-11-20T04:06:55;6.10;99.90
22706;DHT22;11520;51.198;4.468;2022-11-20T04:09:21;6.10;99.90
22706;DHT22;11520;51.198;4.468;2022-11-20T04:11:46;6.10;99.90
22706;DHT22;11520;51.198;4.468;2022-11-20T04:14:14;6.10;99.90
22706;DHT22;11520;51.198;4.468;2022-11-20T04:16:40;5.80;99.90
22706;DHT22;11520;51.198;4.468;2022-11-20T04:19:10;5.80;99.90
22706;DHT22;11520;51.198;4.468;2022-11-20T04:21:36;5.80;99.90
22706;DHT22;11520;51.198;4.468;2022-11-20T04:24:02;5.90;99.90
22706;DHT22;11520;51.198;4.468;2022-11-20T04:26:30;5.80;99.90
22706;DHT22;11520;51.198;4.468;2022-11-20T04:28:57;5.90;99.90
22706;DHT22;11520;51.198;4.468;2022-11-20T04:31:25;5.90;99.90
22706;DHT22;11520;51.198;4.468;2022-11-20T04:33:51;5.90;99.90
22706;DHT22;11520;51.198;4.468;2022-11-20T04:36:23;5.90;99.90
22706;DHT22;11520;51.198;4.468;2022-11-20T04:38:54;5.80;99.90
22706;DHT22;11520;51.198;4.468;2022-11-20T04:41:21;5.80;99.90
22706;DHT22;11520;51.198;4.468;2022-11-20T04:43:52;5.90;99.90
22706;DHT22;11520;51.198;4.468;2022-11-20T04:46:20;5.90;99.90
22706;DHT22;11520;51.198;4.468;2022-11-20T04:48:46;5.90;99.90
22706;DHT22;11520;51.198;4.468;2022-11-20T04:51:13;5.90;99.90
22706;DHT22;11520;51.198;4.468;2022-11-20T04:53:39;5.90;99.90
22706;DHT22;11520;51.198;4.468;2022-11-20T04:56:08;5.80;99.90
22706;DHT22;11520;51.198;4.468;2022-11-20T04:58:35;5.70;99.90
22706;DHT22;11520;51.198;4.468;2022-11-20T05:03:34;5.70;99.90
22706;DHT22;11520;51.198;4.468;2022-11-20T05:06:04;5.70;99.90
22706;DHT22;11520;51.198;4.468;2022-11-20T05:08:31;5.70;99.90
22706;DHT22;11520;51.198;4.468;2022-11-20T05:11:05;5.70;99.90
22706;DHT22;11520;51.198;4.468;2022-11-20T05:13:32;5.60;99.90
22706;DHT22;11520;51.198;4.468;2022-11-20T05:16:03;5.50;99.90
22706;DHT22;11520;51.198;4.468;2022-11-20T05:18:29;5.50;99.90
22706;DHT22;11520;51.198;4.468;2022-11-20T05:20:56;5.50;99.90
22706;DHT22;11520;51.198;4.468;2022-11-20T05:23:22;5.60;99.90
22706;DHT22;11520;51.198;4.468;2022-11-20T05:25:52;5.60;99.90
22706;DHT22;11520;51.198;4.468;2022-11-20T05:28:17;5.50;99.90
22706;DHT22;11520;51.198;4.468;2022-11-20T05:30:45;5.40;99.90
22706;DHT22;11520;51.198;4.468;2022-11-20T05:33:10;5.10;99.90
22706;DHT22;11520;51.198;4.468;2022-11-20T05:35:37;5.10;99.90
22706;DHT22;11520;51.198;4.468;2022-11-20T05:38:03;4.90;99.90
22706;DHT22;11520;51.198;4.468;2022-11-20T05:40:29;4.80;99.90
22706;DHT22;11520;51.198;4.468;2022-11-20T05:42:55;4.80;99.90
22706;DHT22;11520;51.198;4.468;2022-11-20T05:45:22;4.80;99.90
22706;DHT22;11520;51.198;4.468;2022-11-20T05:47:48;4.80;99.90
22706;DHT22;11520;51.198;4.468;2022-11-20T05:50:14;4.80;99.90
22706;DHT22;11520;51.198;4.468;2022-11-20T05:52:42;4.90;99.90
22706;DHT22;11520;51.198;4.468;2022-11-20T05:55:10;5.00;99.90
22706;DHT22;11520;51.198;4.468;2022-11-20T05:57:36;5.00;99.90
22706;DHT22;11520;51.198;4.468;2022-11-20T06:00:03;4.90;99.90
22706;DHT22;11520;51.198;4.468;2022-11-20T06:02:30;4.90;99.90
22706;DHT22;11520;51.198;4.468;2022-11-20T06:04:56;4.70;99.90
22706;DHT22;11520;51.198;4.468;2022-11-20T06:07:22;4.50;99.90
22706;DHT22;11520;51.198;4.468;2022-11-20T06:09:47;4.50;99.90
22706;DHT22;11520;51.198;4.468;2022-11-20T06:12:14;4.50;99.90
22706;DHT22;11520;51.198;4.468;2022-11-20T06:14:40;4.50;99.90
22706;DHT22;11520;51.198;4.468;2022-11-20T06:17:06;4.50;99.90
22706;DHT22;11520;51.198;4.468;2022-11-20T06:19:32;4.30;99.90
22706;DHT22;11520;51.198;4.468;2022-11-20T06:21:57;4.30;99.90
22706;DHT22;11520;51.198;4.468;2022-11-20T06:24:23;4.30;99.90
22706;DHT22;11520;51.198;4.468;2022-11-20T06:26:50;4.30;99.90
22706;DHT22;11520;51.198;4.468;2022-11-20T06:29:16;4.30;99.90
22706;DHT22;11520;51.198;4.468;2022-11-20T06:31:42;4.40;99.90
22706;DHT22;11520;51.198;4.468;2022-11-20T06:34:10;4.30;99.90
22706;DHT22;11520;51.198;4.468;2022-11-20T06:36:35;4.50;99.90
22706;DHT22;11520;51.198;4.468;2022-11-20T06:39:01;4.50;99.90
22706;DHT22;11520;51.198;4.468;2022-11-20T06:41:27;4.60;99.90
22706;DHT22;11520;51.198;4.468;2022-11-20T06:43:53;4.50;99.90
22706;DHT22;11520;51.198;4.468;2022-11-20T06:46:19;4.50;99.90
22706;DHT22;11520;51.198;4.468;2022-11-20T06:48:48;4.50;99.90
22706;DHT22;11520;51.198;4.468;2022-11-20T06:51:14;4.60;99.90
22706;DHT22;11520;51.198;4.468;2022-11-20T06:53:40;4.60;99.90
22706;DHT22;11520;51.198;4.468;2022-11-20T06:56:07;4.50;99.90
22706;DHT22;11520;51.198;4.468;2022-11-20T06:58:34;4.40;99.90
22706;DHT22;11520;51.198;4.468;2022-11-20T07:01:02;4.30;99.90
22706;DHT22;11520;51.198;4.468;2022-11-20T07:03:28;4.30;99.90
22706;DHT22;11520;51.198;4.468;2022-11-20T07:05:58;4.40;99.90
22706;DHT22;11520;51.198;4.468;2022-11-20T07:08:25;4.40;99.90
22706;DHT22;11520;51.198;4.468;2022-11-20T07:10:51;4.50;99.90
22706;DHT22;11520;51.198;4.468;2022-11-20T07:13:17;4.50;99.90
22706;DHT22;11520;51.198;4.468;2022-11-20T07:15:43;4.50;99.90
22706;DHT22;11520;51.198;4.468;2022-11-20T07:18:09;4.50;99.90
22706;DHT22;11520;51.198;4.468;2022-11-20T07:20:34;4.50;99.90
22706;DHT22;11520;51.198;4.468;2022-11-20T07:23:00;4.50;99.90
22706;DHT22;11520;51.198;4.468;2022-11-20T07:25:27;4.50;99.90
22706;DHT22;11520;51.198;4.468;2022-11-20T07:27:58;4.50;99.90
22706;DHT22;11520;51.198;4.468;2022-11-20T07:30:24;4.50;99.90
22706;DHT22;11520;51.198;4.468;2022-11-20T07:32:51;4.40;99.90
22706;DHT22;11520;51.198;4.468;2022-11-20T07:35:17;4.50;99.90
22706;DHT22;11520;51.198;4.468;2022-11-20T07:37:43;4.60;99.90
22706;DHT22;11520;51.198;4.468;2022-11-20T07:40:14;4.50;99.90
22706;DHT22;11520;51.198;4.468;2022-11-20T07:42:50;4.60;99.90
22706;DHT22;11520;51.198;4.468;2022-11-20T07:45:19;4.60;99.90
22706;DHT22;11520;51.198;4.468;2022-11-20T07:47:45;4.70;99.90
22706;DHT22;11520;51.198;4.468;2022-11-20T07:50:14;4.70;99.90
22706;DHT22;11520;51.198;4.468;2022-11-20T07:52:42;4.60;99.90
22706;DHT22;11520;51.198;4.468;2022-11-20T07:55:09;4.70;99.90
22706;DHT22;11520;51.198;4.468;2022-11-20T07:57:35;4.60;99.90
22706;DHT22;11520;51.198;4.468;2022-11-20T08:00:01;4.60;99.90
22706;DHT22;11520;51.198;4.468;2022-11-20T08:02:27;4.60;99.90
22706;DHT22;11520;51.198;4.468;2022-11-20T08:04:52;4.70;99.90
22706;DHT22;11520;51.198;4.468;2022-11-20T08:07:18;4.70;99.90
22706;DHT22;11520;51.198;4.468;2022-11-20T08:09:43;4.80;99.90
22706;DHT22;11520;51.198;4.468;2022-11-20T08:12:18;4.70;99.90
22706;DHT22;11520;51.198;4.468;2022-11-20T08:15:04;4.60;99.90
22706;DHT22;11520;51.198;4.468;2022-11-20T08:17:45;4.60;99.90
22706;DHT22;11520;51.198;4.468;2022-11-20T08:20:11;4.70;99.90
22706;DHT22;11520;51.198;4.468;2022-11-20T08:25:49;5.10;99.90
22706;DHT22;11520;51.198;4.468;2022-11-20T08:28:35;5.20;99.90
22706;DHT22;11520;51.198;4.468;2022-11-20T08:31:05;5.40;99.90
22706;DHT22;11520;51.198;4.468;2022-11-20T08:33:33;5.70;99.90
22706;DHT22;11520;51.198;4.468;2022-11-20T08:36:05;5.70;99.90
22706;DHT22;11520;51.198;4.468;2022-11-20T08:38:32;5.40;99.90
22706;DHT22;11520;51.198;4.468;2022-11-20T08:41:01;5.30;99.90
22706;DHT22;11520;51.198;4.468;2022-11-20T08:43:46;5.10;99.90
22706;DHT22;11520;51.198;4.468;2022-11-20T08:46:13;5.10;99.90
22706;DHT22;11520;51.198;4.468;2022-11-20T08:48:40;5.00;99.90
22706;DHT22;11520;51.198;4.468;2022-11-20T08:51:06;5.20;99.90
22706;DHT22;11520;51.198;4.468;2022-11-20T08:53:32;5.40;99.90
22706;DHT22;11520;51.198;4.468;2022-11-20T08:55:58;5.30;99.90
22706;DHT22;11520;51.198;4.468;2022-11-20T08:58:27;5.30;99.90
22706;DHT22;11520;51.198;4.468;2022-11-20T09:00:53;5.30;99.90
22706;DHT22;11520;51.198;4.468;2022-11-20T09:03:18;5.50;99.90
22706;DHT22;11520;51.198;4.468;2022-11-20T09:05:45;5.40;99.90
22706;DHT22;11520;51.198;4.468;2022-11-20T09:08:14;5.40;99.90
22706;DHT22;11520;51.198;4.468;2022-11-20T09:10:42;5.50;99.90
22706;DHT22;11520;51.198;4.468;2022-11-20T09:13:10;5.80;99.90
22706;DHT22;11520;51.198;4.468;2022-11-20T09:15:36;5.90;99.90
22706;DHT22;11520;51.198;4.468;2022-11-20T09:18:03;5.70;99.90
22706;DHT22;11520;51.198;4.468;2022-11-20T09:20:34;5.80;99.90
22706;DHT22;11520;51.198;4.468;2022-11-20T09:23:00;6.10;99.90
22706;DHT22;11520;51.198;4.468;2022-11-20T09:25:28;6.20;99.90
22706;DHT22;11520;51.198;4.468;2022-11-20T09:27:55;6.20;99.90
22706;DHT22;11520;51.198;4.468;2022-11-20T09:30:22;6.10;99.90
22706;DHT22;11520;51.198;4.468;2022-11-20T09:32:49;6.00;99.90
22706;DHT22;11520;51.198;4.468;2022-11-20T09:35:15;5.90;99.90
22706;DHT22;11520;51.198;4.468;2022-11-20T09:37:41;5.90;99.90
22706;DHT22;11520;51.198;4.468;2022-11-20T09:40:25;5.80;99.90
22706;DHT22;11520;51.198;4.468;2022-11-20T09:51:39;5.80;99.90
22706;DHT22;11520;51.198;4.468;2022-11-20T09:54:16;5.80;99.90
22706;DHT22;11520;51.198;4.468;2022-11-20T09:56:50;5.90;99.90
22706;DHT22;11520;51.198;4.468;2022-11-20T10:02:08;5.90;99.90
22706;DHT22;11520;51.198;4.468;2022-11-20T10:04:39;6.00;99.90
22706;DHT22;11520;51.198;4.468;2022-11-20T10:07:15;6.00;99.90
22706;DHT22;11520;51.198;4.468;2022-11-20T10:09:49;6.10;99.90
22706;DHT22;11520;51.198;4.468;2022-11-20T10:15:17;6.10;99.90
22706;DHT22;11520;51.198;4.468;2022-11-20T10:31:11;6.20;99.90
22706;DHT22;11520;51.198;4.468;2022-11-20T10:33:41;6.20;99.90
22706;DHT22;11520;51.198;4.468;2022-11-20T10:36:27;6.30;99.90
22706;DHT22;11520;51.198;4.468;2022-11-20T10:41:50;6.30;99.90
22706;DHT22;11520;51.198;4.468;2022-11-20T10:44:27;6.20;99.90
22706;DHT22;11520;51.198;4.468;2022-11-20T10:47:31;6.30;99.90
22706;DHT22;11520;51.198;4.468;2022-11-20T10:50:05;6.40;99.90
22706;DHT22;11520;51.198;4.468;2022-11-20T10:55:39;6.50;99.90
22706;DHT22;11520;51.198;4.468;2022-11-20T11:01:17;6.50;99.90
22706;DHT22;11520;51.198;4.468;2022-11-20T11:03:43;6.70;99.90
22706;DHT22;11520;51.198;4.468;2022-11-20T11:06:21;6.90;99.90
22706;DHT22;11520;51.198;4.468;2022-11-20T11:08:51;6.90;99.90
22706;DHT22;11520;51.198;4.468;2022-11-20T11:11:33;6.90;99.90
22706;DHT22;11520;51.198;4.468;2022-11-20T11:14:11;6.90;99.90
22706;DHT22;11520;51.198;4.468;2022-11-20T11:19:15;7.00;99.90
22706;DHT22;11520;51.198;4.468;2022-11-20T11:21:52;7.00;99.90
22706;DHT22;11520;51.198;4.468;2022-11-20T11:24:27;7.10;99.90
22706;DHT22;11520;51.198;4.468;2022-11-20T11:26:59;7.20;99.90
22706;DHT22;11520;51.198;4.468;2022-11-20T11:29:25;7.20;99.90
22706;DHT22;11520;51.198;4.468;2022-11-20T11:32:11;7.20;99.90
22706;DHT22;11520;51.198;4.468;2022-11-20T11:34:37;7.50;99.90
22706;DHT22;11520;51.198;4.468;2022-11-20T11:37:05;7.60;99.90
22706;DHT22;11520;51.198;4.468;2022-11-20T11:39:48;7.60;99.90
22706;DHT22;11520;51.198;4.468;2022-11-20T11:42:17;7.60;99.90
22706;DHT22;11520;51.198;4.468;2022-11-20T11:44:47;7.80;99.90
22706;DHT22;11520;51.198;4.468;2022-11-20T11:47:44;7.80;99.90
22706;DHT22;11520;51.198;4.468;2022-11-20T12:09:52;8.00;99.90
22706;DHT22;11520;51.198;4.468;2022-11-20T12:12:23;8.10;99.90
22706;DHT22;11520;51.198;4.468;2022-11-20T12:14:53;8.10;99.90
22706;DHT22;11520;51.198;4.468;2022-11-20T12:17:20;8.30;99.90
22706;DHT22;11520;51.198;4.468;2022-11-20T12:19:45;8.30;99.90
22706;DHT22;11520;51.198;4.468;2022-11-20T12:22:32;8.30;99.90
22706;DHT22;11520;51.198;4.468;2022-11-20T12:30:33;8.20;99.90
22706;DHT22;11520;51.198;4.468;2022-11-20T12:33:39;8.20;99.90
22706;DHT22;11520;51.198;4.468;2022-11-20T12:36:30;8.30;99.90
22706;DHT22;11520;51.198;4.468;2022-11-20T13:01:56;8.40;99.90
22706;DHT22;11520;51.198;4.468;2022-11-20T13:07:12;8.40;99.90
22706;DHT22;11520;51.198;4.468;2022-11-20T13:09:46;8.40;99.90
22706;DHT22;11520;51.198;4.468;2022-11-20T13:17:45;8.30;99.90
22706;DHT22;11520;51.198;4.468;2022-11-20T13:20:15;8.30;99.90
22706;DHT22;11520;51.198;4.468;2022-11-20T13:22:49;8.20;99.90
22706;DHT22;11520;51.198;4.468;2022-11-20T13:25:30;8.20;99.90
22706;DHT22;11520;51.198;4.468;2022-11-20T13:28:02;8.30;99.90
22706;DHT22;11520;51.198;4.468;2022-11-20T13:30:29;8.20;99.90
22706;DHT22;11520;51.198;4.468;2022-11-20T13:33:08;8.20;99.90
22706;DHT22;11520;51.198;4.468;2022-11-20T13:35:37;8.20;99.90
22706;DHT22;11520;51.198;4.468;2022-11-20T13:38:11;8.10;99.90
22706;DHT22;11520;51.198;4.468;2022-11-20T13:40:55;8.10;99.90
22706;DHT22;11520;51.198;4.468;2022-11-20T13:46:04;8.10;99.90
22706;DHT22;11520;51.198;4.468;2022-11-20T13:48:34;8.10;99.90
22706;DHT22;11520;51.198;4.468;2022-11-20T13:51:15;8.10;99.90
22706;DHT22;11520;51.198;4.468;2022-11-20T13:59:57;8.00;99.90
22706;DHT22;11520;51.198;4.468;2022-11-20T14:02:27;8.00;99.90
22706;DHT22;11520;51.198;4.468;2022-11-20T14:04:59;7.90;99.90
22706;DHT22;11520;51.198;4.468;2022-11-20T14:07:41;7.90;99.90
22706;DHT22;11520;51.198;4.468;2022-11-20T14:10:22;7.90;99.90
22706;DHT22;11520;51.198;4.468;2022-11-20T14:12:48;7.90;99.90
22706;DHT22;11520;51.198;4.468;2022-11-20T14:15:29;7.90;99.90
22706;DHT22;11520;51.198;4.468;2022-11-20T14:17:57;8.00;99.90
22706;DHT22;11520;51.198;4.468;2022-11-20T14:20:28;8.00;99.90
22706;DHT22;11520;51.198;4.468;2022-11-20T14:22:57;8.10;99.90
22706;DHT22;11520;51.198;4.468;2022-11-20T14:25:25;8.00;99.90
22706;DHT22;11520;51.198;4.468;2022-11-20T14:27:59;8.00;99.90
22706;DHT22;11520;51.198;4.468;2022-11-20T14:30:27;8.10;99.90
22706;DHT22;11520;51.198;4.468;2022-11-20T14:32:57;8.10;99.90
22706;DHT22;11520;51.198;4.468;2022-11-20T14:35:28;8.00;99.90
22706;DHT22;11520;51.198;4.468;2022-11-20T14:37:55;8.10;99.90
22706;DHT22;11520;51.198;4.468;2022-11-20T14:40:39;8.10;99.90
22706;DHT22;11520;51.198;4.468;2022-11-20T14:43:36;8.10;99.90
22706;DHT22;11520;51.198;4.468;2022-11-20T14:46:08;8.10;99.90
22706;DHT22;11520;51.198;4.468;2022-11-20T14:48:48;8.10;99.90
22706;DHT22;11520;51.198;4.468;2022-11-20T14:51:29;8.10;99.90
22706;DHT22;11520;51.198;4.468;2022-11-20T14:53:55;8.20;99.90
22706;DHT22;11520;51.198;4.468;2022-11-20T14:56:23;8.10;99.90
22706;DHT22;11520;51.198;4.468;2022-11-20T14:58:57;8.10;99.90
22706;DHT22;11520;51.198;4.468;2022-11-20T15:01:37;8.10;99.90
22706;DHT22;11520;51.198;4.468;2022-11-20T15:04:10;8.10;99.90
22706;DHT22;11520;51.198;4.468;2022-11-20T15:06:37;8.20;99.90
22706;DHT22;11520;51.198;4.468;2022-11-20T15:09:04;8.10;99.90
22706;DHT22;11520;51.198;4.468;2022-11-20T15:11:36;8.20;99.90
22706;DHT22;11520;51.198;4.468;2022-11-20T15:14:06;8.20;99.90
22706;DHT22;11520;51.198;4.468;2022-11-20T15:16:32;8.40;99.90
22706;DHT22;11520;51.198;4.468;2022-11-20T15:19:17;8.20;99.90
22706;DHT22;11520;51.198;4.468;2022-11-20T15:21:45;8.30;99.90
22706;DHT22;11520;51.198;4.468;2022-11-20T15:24:11;8.30;99.90
22706;DHT22;11520;51.198;4.468;2022-11-20T15:26:38;8.40;99.90
22706;DHT22;11520;51.198;4.468;2022-11-20T15:29:12;8.40;99.90
22706;DHT22;11520;51.198;4.468;2022-11-20T15:31:39;8.50;99.90
22706;DHT22;11520;51.198;4.468;2022-11-20T15:34:15;8.50;99.90
22706;DHT22;11520;51.198;4.468;2022-11-20T15:36:42;8.50;99.90
22706;DHT22;11520;51.198;4.468;2022-11-20T15:39:08;8.50;99.90
22706;DHT22;11520;51.198;4.468;2022-11-20T15:41:50;8.50;99.90
22706;DHT22;11520;51.198;4.468;2022-11-20T15:44:17;8.60;99.90
22706;DHT22;11520;51.198;4.468;2022-11-20T15:46:52;8.60;99.90
22706;DHT22;11520;51.198;4.468;2022-11-20T15:49:20;8.60;99.90
22706;DHT22;11520;51.198;4.468;2022-11-20T15:51:51;8.60;99.90
22706;DHT22;11520;51.198;4.468;2022-11-20T15:58:04;8.50;99.90
22706;DHT22;11520;51.198;4.468;2022-11-20T16:00:33;8.50;99.90
22706;DHT22;11520;51.198;4.468;2022-11-20T16:03:05;8.50;99.90
22706;DHT22;11520;51.198;4.468;2022-11-20T16:05:31;8.50;99.90
22706;DHT22;11520;51.198;4.468;2022-11-20T16:07:56;8.50;99.90
22706;DHT22;11520;51.198;4.468;2022-11-20T16:10:23;8.50;99.90
22706;DHT22;11520;51.198;4.468;2022-11-20T16:12:49;8.50;99.90
22706;DHT22;11520;51.198;4.468;2022-11-20T16:15:33;8.40;99.90
22706;DHT22;11520;51.198;4.468;2022-11-20T16:18:17;8.40;99.90
22706;DHT22;11520;51.198;4.468;2022-11-20T16:20:47;8.40;99.90
22706;DHT22;11520;51.198;4.468;2022-11-20T16:23:14;8.40;99.90
22706;DHT22;11520;51.198;4.468;2022-11-20T16:25:41;8.30;99.90
22706;DHT22;11520;51.198;4.468;2022-11-20T16:28:07;8.50;99.90
22706;DHT22;11520;51.198;4.468;2022-11-20T16:30:34;8.50;99.90
22706;DHT22;11520;51.198;4.468;2022-11-20T16:33:01;8.40;99.90
22706;DHT22;11520;51.198;4.468;2022-11-20T16:35:30;8.40;99.90
22706;DHT22;11520;51.198;4.468;2022-11-20T16:37:58;8.40;99.90
22706;DHT22;11520;51.198;4.468;2022-11-20T16:40:24;8.50;99.90
22706;DHT22;11520;51.198;4.468;2022-11-20T16:42:50;8.50;99.90
22706;DHT22;11520;51.198;4.468;2022-11-20T16:45:20;8.50;99.90
22706;DHT22;11520;51.198;4.468;2022-11-20T16:47:52;8.50;99.90
22706;DHT22;11520;51.198;4.468;2022-11-20T16:50:19;8.50;99.90
22706;DHT22;11520;51.198;4.468;2022-11-20T16:52:44;8.50;99.90
22706;DHT22;11520;51.198;4.468;2022-11-20T16:55:10;8.50;99.90
22706;DHT22;11520;51.198;4.468;2022-11-20T16:57:36;8.50;99.90
22706;DHT22;11520;51.198;4.468;2022-11-20T17:00:03;8.40;99.90
22706;DHT22;11520;51.198;4.468;2022-11-20T17:02:28;8.40;99.90
22706;DHT22;11520;51.198;4.468;2022-11-20T17:04:54;8.40;99.90
22706;DHT22;11520;51.198;4.468;2022-11-20T17:07:21;8.40;99.90
22706;DHT22;11520;51.198;4.468;2022-11-20T17:09:49;8.40;99.90
22706;DHT22;11520;51.198;4.468;2022-11-20T17:12:18;8.30;99.90
22706;DHT22;11520;51.198;4.468;2022-11-20T17:14:47;8.30;99.90
22706;DHT22;11520;51.198;4.468;2022-11-20T17:17:15;8.20;99.90
22706;DHT22;11520;51.198;4.468;2022-11-20T17:19:44;8.20;99.90
22706;DHT22;11520;51.198;4.468;2022-11-20T17:22:11;8.20;99.90
22706;DHT22;11520;51.198;4.468;2022-11-20T17:24:36;8.20;99.90
22706;DHT22;11520;51.198;4.468;2022-11-20T17:27:02;8.20;99.90
22706;DHT22;11520;51.198;4.468;2022-11-20T17:29:28;8.30;99.90
22706;DHT22;11520;51.198;4.468;2022-11-20T17:31:57;8.20;99.90
22706;DHT22;11520;51.198;4.468;2022-11-20T17:34:22;8.20;99.90
22706;DHT22;11520;51.198;4.468;2022-11-20T17:36:48;8.10;99.90
22706;DHT22;11520;51.198;4.468;2022-11-20T17:39:15;8.10;99.90
22706;DHT22;11520;51.198;4.468;2022-11-20T17:41:41;8.10;99.90
22706;DHT22;11520;51.198;4.468;2022-11-20T17:44:10;8.10;99.90
22706;DHT22;11520;51.198;4.468;2022-11-20T17:46:39;8.00;99.90
22706;DHT22;11520;51.198;4.468;2022-11-20T17:49:08;8.10;99.90
22706;DHT22;11520;51.198;4.468;2022-11-20T17:51:36;8.00;99.90
22706;DHT22;11520;51.198;4.468;2022-11-20T17:54:04;8.00;99.90
22706;DHT22;11520;51.198;4.468;2022-11-20T17:56:32;8.00;99.90
22706;DHT22;11520;51.198;4.468;2022-11-20T17:59:20;7.90;99.90
22706;DHT22;11520;51.198;4.468;2022-11-20T18:01:49;7.90;99.90